sensor_id;sensor_type;location;lat;lon;timestamp;P1;durP1;ratioP1;P2;durP2;ratioP2
31760;SDS011;18335;51.486;7.562;2023-07-28T00:00:44;4.35;;;1.90;;
31760;SDS011;18335;51.486;7.562;2023-07-28T00:03:11;7.60;;;1.80;;
31760;SDS011;18335;51.486;7.562;2023-07-28T00:05:38;4.57;;;1.75;;
31760;SDS011;18335;51.486;7.562;2023-07-28T00:08:05;2.95;;;1.73;;
31760;SDS011;18335;51.486;7.562;2023-07-28T00:10:32;4.15;;;1.60;;
31760;SDS011;18335;51.486;7.562;2023-07-28T00:12:59;4.40;;;1.80;;
31760;SDS011;18335;51.486;7.562;2023-07-28T00:15:29;5.18;;;1.70;;
31760;SDS011;18335;51.486;7.562;2023-07-28T00:17:55;3.45;;;1.80;;
31760;SDS011;18335;51.486;7.562;2023-07-28T00:20:22;3.67;;;1.67;;
31760;SDS011;18335;51.486;7.562;2023-07-28T00:22:49;4.55;;;1.40;;
31760;SDS011;18335;51.486;7.562;2023-07-28T00:25:16;3.50;;;1.33;;
31760;SDS011;18335;51.486;7.562;2023-07-28T00:27:43;5.90;;;1.38;;
31760;SDS011;18335;51.486;7.562;2023-07-28T00:30:11;3.40;;;1.40;;
31760;SDS011;18335;51.486;7.562;2023-07-28T00:32:39;2.60;;;1.10;;
31760;SDS011;18335;51.486;7.562;2023-07-28T00:35:08;1.30;;;1.02;;
31760;SDS011;18335;51.486;7.562;2023-07-28T00:37:35;5.85;;;1.45;;
31760;SDS011;18335;51.486;7.562;2023-07-28T00:40:02;7.15;;;1.65;;
31760;SDS011;18335;51.486;7.562;2023-07-28T00:42:29;3.55;;;1.73;;
31760;SDS011;18335;51.486;7.562;2023-07-28T00:44:56;3.22;;;1.60;;
31760;SDS011;18335;51.486;7.562;2023-07-28T00:47:22;3.30;;;1.70;;
31760;SDS011;18335;51.486;7.562;2023-07-28T00:49:51;6.03;;;1.48;;
31760;SDS011;18335;51.486;7.562;2023-07-28T00:52:17;2.95;;;1.52;;
31760;SDS011;18335;51.486;7.562;2023-07-28T00:54:44;2.03;;;0.93;;
31760;SDS011;18335;51.486;7.562;2023-07-28T00:57:11;2.95;;;1.17;;
31760;SDS011;18335;51.486;7.562;2023-07-28T00:59:38;4.20;;;1.23;;
31760;SDS011;18335;51.486;7.562;2023-07-28T01:02:05;3.13;;;1.05;;
31760;SDS011;18335;51.486;7.562;2023-07-28T01:04:32;3.35;;;1.00;;
31760;SDS011;18335;51.486;7.562;2023-07-28T01:07:03;1.50;;;1.00;;
31760;SDS011;18335;51.486;7.562;2023-07-28T01:09:37;1.73;;;1.00;;
31760;SDS011;18335;51.486;7.562;2023-07-28T01:12:13;4.50;;;0.95;;
31760;SDS011;18335;51.486;7.562;2023-07-28T01:14:39;2.60;;;1.00;;
31760;SDS011;18335;51.486;7.562;2023-07-28T01:17:06;2.67;;;1.00;;
31760;SDS011;18335;51.486;7.562;2023-07-28T01:19:33;2.08;;;1.00;;
31760;SDS011;18335;51.486;7.562;2023-07-28T01:22:07;5.30;;;1.10;;
31760;SDS011;18335;51.486;7.562;2023-07-28T01:24:48;3.75;;;0.93;;
31760;SDS011;18335;51.486;7.562;2023-07-28T01:27:19;1.80;;;0.77;;
31760;SDS011;18335;51.486;7.562;2023-07-28T01:29:46;1.38;;;0.85;;
31760;SDS011;18335;51.486;7.562;2023-07-28T01:32:14;1.50;;;0.93;;
31760;SDS011;18335;51.486;7.562;2023-07-28T01:34:41;2.45;;;0.82;;
31760;SDS011;18335;51.486;7.562;2023-07-28T01:37:07;3.70;;;0.82;;
31760;SDS011;18335;51.486;7.562;2023-07-28T01:39:34;3.78;;;0.90;;
31760;SDS011;18335;51.486;7.562;2023-07-28T01:42:01;2.88;;;0.73;;
31760;SDS011;18335;51.486;7.562;2023-07-28T01:44:29;2.47;;;0.88;;
31760;SDS011;18335;51.486;7.562;2023-07-28T01:46:56;3.47;;;0.60;;
31760;SDS011;18335;51.486;7.562;2023-07-28T01:49:22;1.88;;;0.80;;
31760;SDS011;18335;51.486;7.562;2023-07-28T01:51:50;1.27;;;0.50;;
31760;SDS011;18335;51.486;7.562;2023-07-28T01:54:16;2.25;;;0.45;;
31760;SDS011;18335;51.486;7.562;2023-07-28T01:56:43;0.88;;;0.57;;
31760;SDS011;18335;51.486;7.562;2023-07-28T01:59:10;2.47;;;0.60;;
31760;SDS011;18335;51.486;7.562;2023-07-28T02:01:38;2.35;;;0.55;;
31760;SDS011;18335;51.486;7.562;2023-07-28T02:04:05;0.40;;;0.40;;
31760;SDS011;18335;51.486;7.562;2023-07-28T02:06:31;1.77;;;0.50;;
31760;SDS011;18335;51.486;7.562;2023-07-28T02:08:58;3.22;;;0.70;;
31760;SDS011;18335;51.486;7.562;2023-07-28T02:11:25;1.17;;;0.60;;
31760;SDS011;18335;51.486;7.562;2023-07-28T02:13:52;2.20;;;0.70;;
31760;SDS011;18335;51.486;7.562;2023-07-28T02:16:18;1.35;;;0.65;;
31760;SDS011;18335;51.486;7.562;2023-07-28T02:18:46;1.42;;;0.60;;
31760;SDS011;18335;51.486;7.562;2023-07-28T02:21:13;1.05;;;0.50;;
31760;SDS011;18335;51.486;7.562;2023-07-28T02:23:40;1.13;;;0.70;;
31760;SDS011;18335;51.486;7.562;2023-07-28T02:26:07;1.25;;;0.45;;
31760;SDS011;18335;51.486;7.562;2023-07-28T02:28:33;2.42;;;0.40;;
31760;SDS011;18335;51.486;7.562;2023-07-28T02:31:00;1.73;;;0.40;;
31760;SDS011;18335;51.486;7.562;2023-07-28T02:33:27;3.40;;;0.43;;
31760;SDS011;18335;51.486;7.562;2023-07-28T02:35:58;2.35;;;0.77;;
31760;SDS011;18335;51.486;7.562;2023-07-28T02:38:25;1.38;;;0.40;;
31760;SDS011;18335;51.486;7.562;2023-07-28T02:40:51;2.15;;;0.50;;
31760;SDS011;18335;51.486;7.562;2023-07-28T02:43:18;1.77;;;0.50;;
31760;SDS011;18335;51.486;7.562;2023-07-28T02:45:47;0.65;;;0.38;;
31760;SDS011;18335;51.486;7.562;2023-07-28T02:48:14;1.10;;;0.55;;
31760;SDS011;18335;51.486;7.562;2023-07-28T02:50:45;0.70;;;0.20;;
31760;SDS011;18335;51.486;7.562;2023-07-28T02:53:13;2.28;;;0.43;;
31760;SDS011;18335;51.486;7.562;2023-07-28T02:55:41;2.35;;;1.08;;
31760;SDS011;18335;51.486;7.562;2023-07-28T02:58:08;0.70;;;0.50;;
31760;SDS011;18335;51.486;7.562;2023-07-28T03:00:36;0.77;;;0.50;;
31760;SDS011;18335;51.486;7.562;2023-07-28T03:03:03;1.50;;;0.57;;
31760;SDS011;18335;51.486;7.562;2023-07-28T03:05:30;0.47;;;0.43;;
31760;SDS011;18335;51.486;7.562;2023-07-28T03:08:31;4.25;;;0.60;;
31760;SDS011;18335;51.486;7.562;2023-07-28T03:11:15;2.10;;;0.40;;
31760;SDS011;18335;51.486;7.562;2023-07-28T03:13:42;0.70;;;0.50;;
31760;SDS011;18335;51.486;7.562;2023-07-28T03:16:09;0.98;;;0.50;;
31760;SDS011;18335;51.486;7.562;2023-07-28T03:18:35;2.63;;;0.82;;
31760;SDS011;18335;51.486;7.562;2023-07-28T03:21:02;0.60;;;0.43;;
31760;SDS011;18335;51.486;7.562;2023-07-28T03:23:31;1.08;;;0.43;;
31760;SDS011;18335;51.486;7.562;2023-07-28T03:25:57;2.33;;;0.50;;
31760;SDS011;18335;51.486;7.562;2023-07-28T03:28:24;0.68;;;0.47;;
31760;SDS011;18335;51.486;7.562;2023-07-28T03:30:51;1.48;;;0.65;;
31760;SDS011;18335;51.486;7.562;2023-07-28T03:33:18;1.85;;;0.30;;
31760;SDS011;18335;51.486;7.562;2023-07-28T03:35:45;1.52;;;0.45;;
31760;SDS011;18335;51.486;7.562;2023-07-28T03:38:14;0.85;;;0.50;;
31760;SDS011;18335;51.486;7.562;2023-07-28T03:40:42;5.20;;;0.47;;
31760;SDS011;18335;51.486;7.562;2023-07-28T03:43:09;0.82;;;0.30;;
31760;SDS011;18335;51.486;7.562;2023-07-28T03:45:36;2.08;;;0.35;;
31760;SDS011;18335;51.486;7.562;2023-07-28T03:48:03;2.28;;;0.40;;
31760;SDS011;18335;51.486;7.562;2023-07-28T03:50:30;2.67;;;0.52;;
31760;SDS011;18335;51.486;7.562;2023-07-28T03:52:56;1.75;;;0.47;;
31760;SDS011;18335;51.486;7.562;2023-07-28T03:55:24;0.98;;;0.40;;
31760;SDS011;18335;51.486;7.562;2023-07-28T03:57:52;1.95;;;0.50;;
31760;SDS011;18335;51.486;7.562;2023-07-28T04:00:18;0.55;;;0.40;;
31760;SDS011;18335;51.486;7.562;2023-07-28T04:02:46;0.70;;;0.40;;
31760;SDS011;18335;51.486;7.562;2023-07-28T04:05:13;0.95;;;0.40;;
31760;SDS011;18335;51.486;7.562;2023-07-28T04:07:40;1.75;;;0.60;;
31760;SDS011;18335;51.486;7.562;2023-07-28T04:10:07;0.65;;;0.45;;
31760;SDS011;18335;51.486;7.562;2023-07-28T04:12:34;2.53;;;0.47;;
31760;SDS011;18335;51.486;7.562;2023-07-28T04:15:03;2.30;;;0.50;;
31760;SDS011;18335;51.486;7.562;2023-07-28T04:17:30;1.85;;;0.45;;
31760;SDS011;18335;51.486;7.562;2023-07-28T04:19:57;1.95;;;0.47;;
31760;SDS011;18335;51.486;7.562;2023-07-28T04:22:23;1.05;;;0.45;;
31760;SDS011;18335;51.486;7.562;2023-07-28T04:24:52;0.65;;;0.30;;
31760;SDS011;18335;51.486;7.562;2023-07-28T04:27:20;4.22;;;0.50;;
31760;SDS011;18335;51.486;7.562;2023-07-28T04:29:47;1.35;;;0.57;;
31760;SDS011;18335;51.486;7.562;2023-07-28T04:32:20;2.65;;;0.30;;
31760;SDS011;18335;51.486;7.562;2023-07-28T04:34:48;0.47;;;0.28;;
31760;SDS011;18335;51.486;7.562;2023-07-28T04:37:27;1.17;;;0.30;;
31760;SDS011;18335;51.486;7.562;2023-07-28T04:39:59;1.38;;;0.40;;
31760;SDS011;18335;51.486;7.562;2023-07-28T04:42:32;0.60;;;0.40;;
31760;SDS011;18335;51.486;7.562;2023-07-28T04:44:59;1.38;;;0.40;;
31760;SDS011;18335;51.486;7.562;2023-07-28T04:47:27;0.85;;;0.30;;
31760;SDS011;18335;51.486;7.562;2023-07-28T04:49:53;0.68;;;0.40;;
31760;SDS011;18335;51.486;7.562;2023-07-28T04:52:47;0.50;;;0.30;;
31760;SDS011;18335;51.486;7.562;2023-07-28T04:55:32;2.10;;;0.40;;
31760;SDS011;18335;51.486;7.562;2023-07-28T04:57:59;0.38;;;0.35;;
31760;SDS011;18335;51.486;7.562;2023-07-28T05:00:34;0.60;;;0.40;;
31760;SDS011;18335;51.486;7.562;2023-07-28T05:03:02;0.43;;;0.40;;
31760;SDS011;18335;51.486;7.562;2023-07-28T05:05:34;1.55;;;0.40;;
31760;SDS011;18335;51.486;7.562;2023-07-28T05:08:04;0.88;;;0.40;;
31760;SDS011;18335;51.486;7.562;2023-07-28T05:10:30;3.33;;;0.63;;
31760;SDS011;18335;51.486;7.562;2023-07-28T05:12:57;2.95;;;0.88;;
31760;SDS011;18335;51.486;7.562;2023-07-28T05:15:24;1.20;;;0.52;;
31760;SDS011;18335;51.486;7.562;2023-07-28T05:17:51;0.75;;;0.52;;
31760;SDS011;18335;51.486;7.562;2023-07-28T05:20:41;1.65;;;0.28;;
31760;SDS011;18335;51.486;7.562;2023-07-28T05:23:14;3.13;;;0.47;;
31760;SDS011;18335;51.486;7.562;2023-07-28T05:25:41;0.57;;;0.40;;
31760;SDS011;18335;51.486;7.562;2023-07-28T05:28:08;1.15;;;0.40;;
31760;SDS011;18335;51.486;7.562;2023-07-28T05:30:37;1.05;;;0.60;;
31760;SDS011;18335;51.486;7.562;2023-07-28T05:33:04;0.73;;;0.47;;
31760;SDS011;18335;51.486;7.562;2023-07-28T05:35:56;0.98;;;0.30;;
31760;SDS011;18335;51.486;7.562;2023-07-28T05:38:25;4.28;;;0.77;;
31760;SDS011;18335;51.486;7.562;2023-07-28T05:40:55;11.70;;;1.35;;
31760;SDS011;18335;51.486;7.562;2023-07-28T05:43:23;2.10;;;0.55;;
31760;SDS011;18335;51.486;7.562;2023-07-28T05:45:55;5.03;;;0.75;;
31760;SDS011;18335;51.486;7.562;2023-07-28T05:48:23;2.15;;;0.52;;
31760;SDS011;18335;51.486;7.562;2023-07-28T05:50:51;0.88;;;0.63;;
31760;SDS011;18335;51.486;7.562;2023-07-28T05:53:19;4.45;;;0.70;;
31760;SDS011;18335;51.486;7.562;2023-07-28T05:55:50;3.25;;;0.50;;
31760;SDS011;18335;51.486;7.562;2023-07-28T05:58:16;1.08;;;0.88;;
31760;SDS011;18335;51.486;7.562;2023-07-28T06:00:44;3.10;;;0.77;;
31760;SDS011;18335;51.486;7.562;2023-07-28T06:03:28;1.02;;;0.50;;
31760;SDS011;18335;51.486;7.562;2023-07-28T06:06:12;1.77;;;0.70;;
31760;SDS011;18335;51.486;7.562;2023-07-28T06:08:39;0.95;;;0.60;;
31760;SDS011;18335;51.486;7.562;2023-07-28T06:11:06;1.08;;;0.50;;
31760;SDS011;18335;51.486;7.562;2023-07-28T06:13:33;3.08;;;0.70;;
31760;SDS011;18335;51.486;7.562;2023-07-28T06:16:00;1.42;;;0.70;;
31760;SDS011;18335;51.486;7.562;2023-07-28T06:18:27;2.05;;;0.85;;
31760;SDS011;18335;51.486;7.562;2023-07-28T06:21:05;1.50;;;0.90;;
31760;SDS011;18335;51.486;7.562;2023-07-28T06:23:33;2.15;;;1.00;;
31760;SDS011;18335;51.486;7.562;2023-07-28T06:26:00;3.83;;;1.10;;
31760;SDS011;18335;51.486;7.562;2023-07-28T06:28:27;2.17;;;1.10;;
31760;SDS011;18335;51.486;7.562;2023-07-28T06:30:54;6.22;;;1.65;;
31760;SDS011;18335;51.486;7.562;2023-07-28T06:33:22;2.25;;;1.13;;
31760;SDS011;18335;51.486;7.562;2023-07-28T06:35:50;1.42;;;0.95;;
31760;SDS011;18335;51.486;7.562;2023-07-28T06:38:17;1.42;;;1.00;;
31760;SDS011;18335;51.486;7.562;2023-07-28T06:40:48;2.83;;;1.40;;
31760;SDS011;18335;51.486;7.562;2023-07-28T06:43:16;1.90;;;1.38;;
31760;SDS011;18335;51.486;7.562;2023-07-28T06:45:46;1.75;;;1.20;;
31760;SDS011;18335;51.486;7.562;2023-07-28T06:48:13;6.07;;;2.13;;
31760;SDS011;18335;51.486;7.562;2023-07-28T06:50:40;4.95;;;2.83;;
31760;SDS011;18335;51.486;7.562;2023-07-28T06:53:06;3.75;;;2.13;;
31760;SDS011;18335;51.486;7.562;2023-07-28T06:55:33;5.22;;;2.45;;
31760;SDS011;18335;51.486;7.562;2023-07-28T06:58:05;5.10;;;2.15;;
31760;SDS011;18335;51.486;7.562;2023-07-28T07:00:32;5.57;;;2.38;;
31760;SDS011;18335;51.486;7.562;2023-07-28T07:02:59;6.38;;;3.30;;
31760;SDS011;18335;51.486;7.562;2023-07-28T07:05:26;6.82;;;3.30;;
31760;SDS011;18335;51.486;7.562;2023-07-28T07:07:53;5.47;;;2.90;;
31760;SDS011;18335;51.486;7.562;2023-07-28T07:10:20;4.88;;;2.42;;
31760;SDS011;18335;51.486;7.562;2023-07-28T07:12:47;5.82;;;2.50;;
31760;SDS011;18335;51.486;7.562;2023-07-28T07:15:15;6.03;;;2.05;;
31760;SDS011;18335;51.486;7.562;2023-07-28T07:17:42;2.92;;;1.40;;
31760;SDS011;18335;51.486;7.562;2023-07-28T07:20:09;4.78;;;1.75;;
31760;SDS011;18335;51.486;7.562;2023-07-28T07:22:36;3.17;;;1.70;;
31760;SDS011;18335;51.486;7.562;2023-07-28T07:25:03;5.38;;;2.80;;
31760;SDS011;18335;51.486;7.562;2023-07-28T07:27:32;6.15;;;2.88;;
31760;SDS011;18335;51.486;7.562;2023-07-28T07:29:58;7.13;;;2.58;;
31760;SDS011;18335;51.486;7.562;2023-07-28T07:32:27;9.95;;;4.18;;
31760;SDS011;18335;51.486;7.562;2023-07-28T07:34:53;8.27;;;4.43;;
31760;SDS011;18335;51.486;7.562;2023-07-28T07:37:20;10.32;;;5.70;;
31760;SDS011;18335;51.486;7.562;2023-07-28T07:39:47;9.40;;;5.10;;
31760;SDS011;18335;51.486;7.562;2023-07-28T07:42:13;10.48;;;5.32;;
31760;SDS011;18335;51.486;7.562;2023-07-28T07:44:40;9.90;;;4.40;;
31760;SDS011;18335;51.486;7.562;2023-07-28T07:47:13;9.82;;;5.10;;
31760;SDS011;18335;51.486;7.562;2023-07-28T07:49:42;10.23;;;5.32;;
31760;SDS011;18335;51.486;7.562;2023-07-28T07:52:09;10.38;;;5.45;;
31760;SDS011;18335;51.486;7.562;2023-07-28T07:54:36;8.65;;;4.72;;
31760;SDS011;18335;51.486;7.562;2023-07-28T07:57:03;8.77;;;4.20;;
31760;SDS011;18335;51.486;7.562;2023-07-28T07:59:31;10.77;;;4.22;;
31760;SDS011;18335;51.486;7.562;2023-07-28T08:01:58;6.78;;;3.50;;
31760;SDS011;18335;51.486;7.562;2023-07-28T08:04:28;7.18;;;3.90;;
31760;SDS011;18335;51.486;7.562;2023-07-28T08:06:57;10.32;;;4.30;;
31760;SDS011;18335;51.486;7.562;2023-07-28T08:09:23;9.57;;;6.00;;
31760;SDS011;18335;51.486;7.562;2023-07-28T08:11:50;11.73;;;6.68;;
31760;SDS011;18335;51.486;7.562;2023-07-28T08:14:18;13.00;;;6.80;;
31760;SDS011;18335;51.486;7.562;2023-07-28T08:16:45;11.77;;;6.53;;
31760;SDS011;18335;51.486;7.562;2023-07-28T08:19:11;11.10;;;5.57;;
31760;SDS011;18335;51.486;7.562;2023-07-28T08:21:38;10.77;;;6.15;;
31760;SDS011;18335;51.486;7.562;2023-07-28T08:24:06;9.32;;;5.35;;
31760;SDS011;18335;51.486;7.562;2023-07-28T08:26:33;9.43;;;5.45;;
31760;SDS011;18335;51.486;7.562;2023-07-28T08:29:00;11.00;;;5.32;;
31760;SDS011;18335;51.486;7.562;2023-07-28T08:31:27;14.63;;;10.27;;
31760;SDS011;18335;51.486;7.562;2023-07-28T08:33:54;14.20;;;10.30;;
31760;SDS011;18335;51.486;7.562;2023-07-28T08:36:20;14.02;;;9.18;;
31760;SDS011;18335;51.486;7.562;2023-07-28T08:38:47;12.13;;;8.05;;
31760;SDS011;18335;51.486;7.562;2023-07-28T08:41:15;11.90;;;6.75;;
31760;SDS011;18335;51.486;7.562;2023-07-28T08:43:42;10.35;;;6.72;;
31760;SDS011;18335;51.486;7.562;2023-07-28T08:46:09;10.63;;;6.53;;
31760;SDS011;18335;51.486;7.562;2023-07-28T08:48:35;9.13;;;5.78;;
31760;SDS011;18335;51.486;7.562;2023-07-28T08:51:03;9.68;;;5.88;;
31760;SDS011;18335;51.486;7.562;2023-07-28T08:53:30;9.60;;;5.25;;
31760;SDS011;18335;51.486;7.562;2023-07-28T08:55:57;10.25;;;5.22;;
31760;SDS011;18335;51.486;7.562;2023-07-28T08:58:25;7.00;;;3.70;;
31760;SDS011;18335;51.486;7.562;2023-07-28T09:00:52;6.07;;;3.13;;
31760;SDS011;18335;51.486;7.562;2023-07-28T09:03:19;5.50;;;2.10;;
31760;SDS011;18335;51.486;7.562;2023-07-28T09:05:48;4.10;;;1.98;;
31760;SDS011;18335;51.486;7.562;2023-07-28T09:08:16;6.20;;;1.98;;
31760;SDS011;18335;51.486;7.562;2023-07-28T09:10:43;3.08;;;1.42;;
31760;SDS011;18335;51.486;7.562;2023-07-28T09:13:11;2.47;;;1.30;;
31760;SDS011;18335;51.486;7.562;2023-07-28T09:15:39;2.05;;;1.27;;
31760;SDS011;18335;51.486;7.562;2023-07-28T09:18:07;3.45;;;1.27;;
31760;SDS011;18335;51.486;7.562;2023-07-28T09:20:35;2.47;;;1.27;;
31760;SDS011;18335;51.486;7.562;2023-07-28T09:23:03;5.10;;;1.60;;
31760;SDS011;18335;51.486;7.562;2023-07-28T09:25:31;3.38;;;1.40;;
31760;SDS011;18335;51.486;7.562;2023-07-28T09:27:58;2.67;;;1.55;;
31760;SDS011;18335;51.486;7.562;2023-07-28T09:30:26;2.22;;;1.45;;
31760;SDS011;18335;51.486;7.562;2023-07-28T09:32:54;2.55;;;1.20;;
31760;SDS011;18335;51.486;7.562;2023-07-28T09:35:21;3.05;;;1.20;;
31760;SDS011;18335;51.486;7.562;2023-07-28T09:37:49;3.95;;;1.63;;
31760;SDS011;18335;51.486;7.562;2023-07-28T09:40:18;2.70;;;1.63;;
31760;SDS011;18335;51.486;7.562;2023-07-28T09:42:47;2.30;;;1.40;;
31760;SDS011;18335;51.486;7.562;2023-07-28T09:45:15;2.65;;;1.38;;
31760;SDS011;18335;51.486;7.562;2023-07-28T09:47:44;3.28;;;1.38;;
31760;SDS011;18335;51.486;7.562;2023-07-28T09:50:14;1.70;;;1.00;;
31760;SDS011;18335;51.486;7.562;2023-07-28T09:52:42;1.73;;;1.00;;
31760;SDS011;18335;51.486;7.562;2023-07-28T09:55:10;1.92;;;0.90;;
31760;SDS011;18335;51.486;7.562;2023-07-28T09:57:39;1.67;;;0.93;;
31760;SDS011;18335;51.486;7.562;2023-07-28T10:00:11;1.45;;;0.93;;
31760;SDS011;18335;51.486;7.562;2023-07-28T10:02:40;3.80;;;0.80;;
31760;SDS011;18335;51.486;7.562;2023-07-28T10:05:07;2.55;;;1.00;;
31760;SDS011;18335;51.486;7.562;2023-07-28T10:07:38;2.58;;;0.98;;
31760;SDS011;18335;51.486;7.562;2023-07-28T10:10:07;2.85;;;1.00;;
31760;SDS011;18335;51.486;7.562;2023-07-28T10:12:40;1.58;;;0.90;;
31760;SDS011;18335;51.486;7.562;2023-07-28T10:15:11;1.83;;;0.88;;
31760;SDS011;18335;51.486;7.562;2023-07-28T10:17:43;1.50;;;0.70;;
31760;SDS011;18335;51.486;7.562;2023-07-28T10:23:09;2.55;;;1.00;;
31760;SDS011;18335;51.486;7.562;2023-07-28T10:25:38;2.97;;;1.10;;
31760;SDS011;18335;51.486;7.562;2023-07-28T10:28:06;2.78;;;1.35;;
31760;SDS011;18335;51.486;7.562;2023-07-28T10:30:35;1.75;;;1.25;;
31760;SDS011;18335;51.486;7.562;2023-07-28T10:33:03;2.42;;;1.20;;
31760;SDS011;18335;51.486;7.562;2023-07-28T10:35:30;4.22;;;1.58;;
31760;SDS011;18335;51.486;7.562;2023-07-28T10:41:06;2.90;;;1.50;;
31760;SDS011;18335;51.486;7.562;2023-07-28T10:43:34;3.92;;;1.85;;
31760;SDS011;18335;51.486;7.562;2023-07-28T10:46:01;2.17;;;1.38;;
31760;SDS011;18335;51.486;7.562;2023-07-28T10:48:28;3.15;;;1.40;;
31760;SDS011;18335;51.486;7.562;2023-07-28T10:50:55;2.47;;;1.60;;
31760;SDS011;18335;51.486;7.562;2023-07-28T10:53:21;4.32;;;1.30;;
31760;SDS011;18335;51.486;7.562;2023-07-28T10:55:50;4.45;;;1.45;;
31760;SDS011;18335;51.486;7.562;2023-07-28T10:58:16;2.70;;;1.48;;
31760;SDS011;18335;51.486;7.562;2023-07-28T11:00:43;1.60;;;1.30;;
31760;SDS011;18335;51.486;7.562;2023-07-28T11:03:11;2.13;;;1.50;;
31760;SDS011;18335;51.486;7.562;2023-07-28T11:05:39;4.55;;;1.70;;
31760;SDS011;18335;51.486;7.562;2023-07-28T11:08:07;2.25;;;1.42;;
31760;SDS011;18335;51.486;7.562;2023-07-28T11:10:33;2.35;;;1.45;;
31760;SDS011;18335;51.486;7.562;2023-07-28T11:13:03;4.30;;;1.83;;
31760;SDS011;18335;51.486;7.562;2023-07-28T11:15:32;3.95;;;2.03;;
31760;SDS011;18335;51.486;7.562;2023-07-28T11:17:59;6.97;;;3.85;;
31760;SDS011;18335;51.486;7.562;2023-07-28T11:20:27;8.27;;;4.32;;
31760;SDS011;18335;51.486;7.562;2023-07-28T11:22:54;8.80;;;4.15;;
31760;SDS011;18335;51.486;7.562;2023-07-28T11:25:23;8.00;;;3.33;;
31760;SDS011;18335;51.486;7.562;2023-07-28T11:27:50;4.65;;;2.35;;
31760;SDS011;18335;51.486;7.562;2023-07-28T11:30:19;4.78;;;2.35;;
31760;SDS011;18335;51.486;7.562;2023-07-28T11:32:47;3.30;;;2.10;;
31760;SDS011;18335;51.486;7.562;2023-07-28T11:35:16;4.28;;;2.17;;
31760;SDS011;18335;51.486;7.562;2023-07-28T11:37:44;3.08;;;1.83;;
31760;SDS011;18335;51.486;7.562;2023-07-28T11:40:14;4.40;;;1.70;;
31760;SDS011;18335;51.486;7.562;2023-07-28T11:42:44;2.67;;;1.77;;
31760;SDS011;18335;51.486;7.562;2023-07-28T11:45:12;2.80;;;1.70;;
31760;SDS011;18335;51.486;7.562;2023-07-28T11:47:52;3.28;;;1.30;;
31760;SDS011;18335;51.486;7.562;2023-07-28T11:50:24;3.67;;;1.42;;
31760;SDS011;18335;51.486;7.562;2023-07-28T11:52:52;4.93;;;1.80;;
31760;SDS011;18335;51.486;7.562;2023-07-28T11:55:20;3.28;;;1.67;;
31760;SDS011;18335;51.486;7.562;2023-07-28T11:57:47;2.25;;;1.58;;
31760;SDS011;18335;51.486;7.562;2023-07-28T12:00:15;2.63;;;1.48;;
31760;SDS011;18335;51.486;7.562;2023-07-28T12:02:43;5.03;;;1.63;;
31760;SDS011;18335;51.486;7.562;2023-07-28T12:05:13;4.78;;;1.80;;
31760;SDS011;18335;51.486;7.562;2023-07-28T12:07:41;3.22;;;1.40;;
31760;SDS011;18335;51.486;7.562;2023-07-28T12:10:13;2.35;;;1.50;;
31760;SDS011;18335;51.486;7.562;2023-07-28T12:12:41;3.90;;;1.50;;
31760;SDS011;18335;51.486;7.562;2023-07-28T12:15:19;2.70;;;1.60;;
31760;SDS011;18335;51.486;7.562;2023-07-28T12:18:01;3.80;;;1.60;;
31760;SDS011;18335;51.486;7.562;2023-07-28T12:20:35;4.22;;;1.48;;
31760;SDS011;18335;51.486;7.562;2023-07-28T12:23:02;2.13;;;1.45;;
31760;SDS011;18335;51.486;7.562;2023-07-28T12:25:29;4.28;;;1.83;;
31760;SDS011;18335;51.486;7.562;2023-07-28T12:27:56;2.55;;;1.50;;
31760;SDS011;18335;51.486;7.562;2023-07-28T12:30:24;2.10;;;1.40;;
31760;SDS011;18335;51.486;7.562;2023-07-28T12:32:51;3.33;;;1.75;;
31760;SDS011;18335;51.486;7.562;2023-07-28T12:35:17;2.95;;;1.17;;
31760;SDS011;18335;51.486;7.562;2023-07-28T12:37:47;3.13;;;1.30;;
31760;SDS011;18335;51.486;7.562;2023-07-28T12:40:14;1.52;;;1.10;;
31760;SDS011;18335;51.486;7.562;2023-07-28T12:42:41;1.50;;;0.90;;
31760;SDS011;18335;51.486;7.562;2023-07-28T12:45:08;2.75;;;0.98;;
31760;SDS011;18335;51.486;7.562;2023-07-28T12:47:36;4.72;;;1.10;;
31760;SDS011;18335;51.486;7.562;2023-07-28T12:50:03;1.67;;;0.90;;
31760;SDS011;18335;51.486;7.562;2023-07-28T12:52:32;2.33;;;1.30;;
31760;SDS011;18335;51.486;7.562;2023-07-28T12:55:00;1.42;;;1.00;;
31760;SDS011;18335;51.486;7.562;2023-07-28T12:57:27;1.42;;;0.95;;
31760;SDS011;18335;51.486;7.562;2023-07-28T12:59:53;2.58;;;1.00;;
31760;SDS011;18335;51.486;7.562;2023-07-28T13:02:20;1.80;;;0.80;;
31760;SDS011;18335;51.486;7.562;2023-07-28T13:04:47;2.75;;;0.80;;
31760;SDS011;18335;51.486;7.562;2023-07-28T13:07:13;1.75;;;0.88;;
31760;SDS011;18335;51.486;7.562;2023-07-28T13:09:40;2.13;;;0.90;;
31760;SDS011;18335;51.486;7.562;2023-07-28T13:12:09;1.80;;;1.08;;
31760;SDS011;18335;51.486;7.562;2023-07-28T13:14:36;2.70;;;1.30;;
31760;SDS011;18335;51.486;7.562;2023-07-28T13:17:02;1.15;;;1.00;;
31760;SDS011;18335;51.486;7.562;2023-07-28T13:19:29;1.58;;;1.00;;
31760;SDS011;18335;51.486;7.562;2023-07-28T13:21:56;3.00;;;1.30;;
31760;SDS011;18335;51.486;7.562;2023-07-28T13:24:23;1.90;;;1.00;;
31760;SDS011;18335;51.486;7.562;2023-07-28T13:26:50;3.53;;;1.30;;
31760;SDS011;18335;51.486;7.562;2023-07-28T13:29:18;2.47;;;0.90;;
31760;SDS011;18335;51.486;7.562;2023-07-28T13:31:44;2.55;;;0.77;;
31760;SDS011;18335;51.486;7.562;2023-07-28T13:34:11;1.98;;;1.05;;
31760;SDS011;18335;51.486;7.562;2023-07-28T13:36:38;2.05;;;1.10;;
31760;SDS011;18335;51.486;7.562;2023-07-28T13:39:05;1.58;;;0.75;;
31760;SDS011;18335;51.486;7.562;2023-07-28T13:41:32;1.08;;;0.80;;
31760;SDS011;18335;51.486;7.562;2023-07-28T13:43:59;2.85;;;0.90;;
31760;SDS011;18335;51.486;7.562;2023-07-28T13:46:27;1.55;;;0.90;;
31760;SDS011;18335;51.486;7.562;2023-07-28T13:48:53;1.85;;;0.82;;
31760;SDS011;18335;51.486;7.562;2023-07-28T13:51:20;0.65;;;0.50;;
31760;SDS011;18335;51.486;7.562;2023-07-28T13:53:47;1.58;;;0.80;;
31760;SDS011;18335;51.486;7.562;2023-07-28T13:56:14;2.50;;;0.90;;
31760;SDS011;18335;51.486;7.562;2023-07-28T13:58:42;2.25;;;0.82;;
31760;SDS011;18335;51.486;7.562;2023-07-28T14:01:09;1.15;;;0.68;;
31760;SDS011;18335;51.486;7.562;2023-07-28T14:03:37;1.42;;;0.80;;
31760;SDS011;18335;51.486;7.562;2023-07-28T14:06:04;1.33;;;0.90;;
31760;SDS011;18335;51.486;7.562;2023-07-28T14:08:30;1.75;;;0.90;;
31760;SDS011;18335;51.486;7.562;2023-07-28T14:10:57;1.70;;;1.30;;
31760;SDS011;18335;51.486;7.562;2023-07-28T14:13:24;3.17;;;1.05;;
31760;SDS011;18335;51.486;7.562;2023-07-28T14:15:51;1.92;;;1.20;;
31760;SDS011;18335;51.486;7.562;2023-07-28T14:18:17;1.85;;;1.10;;
31760;SDS011;18335;51.486;7.562;2023-07-28T14:20:45;1.95;;;1.20;;
31760;SDS011;18335;51.486;7.562;2023-07-28T14:23:23;0.90;;;0.77;;
31760;SDS011;18335;51.486;7.562;2023-07-28T14:25:50;1.92;;;0.98;;
31760;SDS011;18335;51.486;7.562;2023-07-28T14:28:18;1.23;;;0.70;;
31760;SDS011;18335;51.486;7.562;2023-07-28T14:30:45;2.33;;;0.90;;
31760;SDS011;18335;51.486;7.562;2023-07-28T14:33:12;2.40;;;0.90;;
31760;SDS011;18335;51.486;7.562;2023-07-28T14:35:40;2.50;;;0.90;;
31760;SDS011;18335;51.486;7.562;2023-07-28T14:38:08;1.13;;;0.75;;
31760;SDS011;18335;51.486;7.562;2023-07-28T14:40:35;0.73;;;0.60;;
31760;SDS011;18335;51.486;7.562;2023-07-28T14:43:05;1.10;;;0.80;;
31760;SDS011;18335;51.486;7.562;2023-07-28T14:45:32;1.88;;;0.82;;
31760;SDS011;18335;51.486;7.562;2023-07-28T14:48:00;1.67;;;0.95;;
31760;SDS011;18335;51.486;7.562;2023-07-28T14:50:28;1.02;;;0.80;;
31760;SDS011;18335;51.486;7.562;2023-07-28T14:52:57;2.60;;;1.10;;
31760;SDS011;18335;51.486;7.562;2023-07-28T14:55:25;3.25;;;1.00;;
31760;SDS011;18335;51.486;7.562;2023-07-28T14:57:52;0.90;;;0.60;;
31760;SDS011;18335;51.486;7.562;2023-07-28T15:00:19;1.20;;;0.80;;